Time;durP1;ratioP1;P1;durP2;ratioP2;P2;SDS_P1;SDS_P2;PMS_P1;PMS_P2;Temp;Humidity;BMP_temperature;BMP_pressure;BME280_temperature;BME280_humidity;BME280_pressure;Samples;Min_cycle;Max_cycle;Signal;HPM_P1;HPM_P2
2023/12/29 00:01:54;;;;;;;7.70;4.68;;;;;;;11.75;69.28;97146.84;4909376;28;20724;-82
2023/12/29 00:04:20;;;;;;;8.35;5.88;;;;;;;11.75;69.12;97165.09;4906605;28;20293;-80
2023/12/29 00:06:45;;;;;;;6.85;5.22;;;;;;;11.81;69.14;97157.06;4910092;28;20326;-80
2023/12/29 00:09:12;;;;;;;6.25;5.03;;;;;;;11.81;68.65;97144.00;4908879;28;20332;-80
2023/12/29 00:11:38;;;;;;;6.32;4.97;;;;;;;11.93;68.46;97156.09;4941031;28;20191;-79
2023/12/29 00:14:03;;;;;;;7.75;5.43;;;;;;;11.67;69.44;97136.88;4919349;28;20228;-79
2023/12/29 00:16:29;;;;;;;8.57;5.68;;;;;;;11.88;68.08;97143.78;4906485;28;20260;-80
2023/12/29 00:18:54;;;;;;;6.15;4.65;;;;;;;11.94;67.62;97142.00;4891837;28;20162;-78
2023/12/29 00:21:19;;;;;;;7.05;5.03;;;;;;;11.72;67.72;97144.72;4918125;28;20464;-79
2023/12/29 00:23:45;;;;;;;6.53;5.45;;;;;;;11.71;68.20;97135.34;4924201;28;20025;-78
2023/12/29 00:26:10;;;;;;;6.43;5.30;;;;;;;11.83;68.01;97135.16;4924096;28;20213;-79
2023/12/29 00:28:40;;;;;;;7.43;4.88;;;;;;;11.73;68.63;97139.25;4907539;28;20427;-79
2023/12/29 00:31:06;;;;;;;7.57;5.50;;;;;;;11.75;68.74;97139.00;4951811;28;20204;-79
2023/12/29 00:33:31;;;;;;;8.68;5.88;;;;;;;11.86;68.45;97139.84;4924896;28;20305;-79
2023/12/29 00:35:57;;;;;;;7.25;6.18;;;;;;;11.65;68.85;97142.34;4952984;28;20671;-78
2023/12/29 00:38:23;;;;;;;8.15;6.00;;;;;;;11.71;68.19;97141.34;4940604;28;20335;-78
2023/12/29 00:40:48;;;;;;;7.57;5.63;;;;;;;11.81;68.27;97140.63;4910633;28;20643;-79
2023/12/29 00:43:14;;;;;;;8.68;6.15;;;;;;;11.83;67.81;97141.16;4923695;28;20216;-80
2023/12/29 00:45:39;;;;;;;9.50;6.57;;;;;;;11.89;67.75;97137.53;4924238;28;20161;-79
2023/12/29 00:48:05;;;;;;;8.07;5.93;;;;;;;12.09;67.74;97128.25;4924328;28;20216;-79
2023/12/29 00:50:30;;;;;;;9.02;6.35;;;;;;;11.90;67.59;97135.72;4905245;28;20721;-78
2023/12/29 00:52:56;;;;;;;7.80;5.93;;;;;;;12.06;67.83;97129.53;4925331;28;20949;-78
2023/12/29 00:55:21;;;;;;;9.15;5.90;;;;;;;11.92;67.53;97120.59;4925516;28;20108;-78
2023/12/29 00:57:46;;;;;;;8.93;6.45;;;;;;;11.79;67.45;97119.22;4918834;28;20281;-79
2023/12/29 01:00:12;;;;;;;10.70;6.30;;;;;;;11.58;68.72;97107.88;4920059;28;20396;-78
2023/12/29 01:02:39;;;;;;;8.80;6.80;;;;;;;11.81;67.86;97124.97;4928449;28;20080;-78
2023/12/29 01:05:05;;;;;;;7.45;5.70;;;;;;;11.83;67.33;97117.66;4953842;28;20295;-79
2023/12/29 01:07:30;;;;;;;6.50;5.20;;;;;;;11.68;68.92;97122.81;4939654;28;20267;-78
2023/12/29 01:09:56;;;;;;;6.15;4.85;;;;;;;11.85;67.51;97126.03;4945282;28;20076;-78
2023/12/29 01:12:21;;;;;;;7.85;6.07;;;;;;;11.63;68.43;97126.16;4926567;28;20674;-78
2023/12/29 01:14:47;;;;;;;8.10;5.32;;;;;;;11.71;68.05;97120.47;4896421;28;20298;-79
2023/12/29 01:17:12;;;;;;;7.93;5.53;;;;;;;11.71;68.10;97124.91;4910489;28;20295;-79
2023/12/29 01:19:37;;;;;;;8.38;5.47;;;;;;;11.76;67.26;97114.50;4916543;28;20367;-78
2023/12/29 01:22:03;;;;;;;7.60;4.85;;;;;;;11.78;67.16;97121.03;4908540;28;20278;-80
2023/12/29 01:24:28;;;;;;;9.10;4.85;;;;;;;11.85;67.45;97126.03;4947061;28;20220;-78
2023/12/29 01:26:54;;;;;;;6.05;4.82;;;;;;;11.83;67.11;97119.50;4928130;28;20216;-79
2023/12/29 01:29:19;;;;;;;7.82;4.40;;;;;;;11.81;67.08;97117.91;4915267;28;20216;-79
2023/12/29 01:31:45;;;;;;;5.85;4.32;;;;;;;11.54;68.12;97106.81;4929979;28;20037;-79
2023/12/29 01:34:10;;;;;;;5.88;4.57;;;;;;;11.52;68.18;97101.06;4913115;28;20322;-79
2023/12/29 01:36:36;;;;;;;5.43;4.85;;;;;;;11.58;67.60;97106.06;4909916;28;20201;-78
2023/12/29 01:39:02;;;;;;;6.15;4.00;;;;;;;11.93;66.19;97101.31;4898073;28;20200;-80
2023/12/29 01:41:29;;;;;;;6.05;4.32;;;;;;;11.94;66.58;97089.81;4914934;28;20153;-79
2023/12/29 01:44:17;;;;;;;4.72;3.80;;;;;;;11.80;66.20;97105.91;4896992;28;20288;-79
2023/12/29 01:46:42;;;;;;;5.65;3.80;;;;;;;11.69;66.18;97091.25;4894547;28;20215;-78
2023/12/29 01:49:08;;;;;;;4.43;3.47;;;;;;;11.84;66.04;97092.34;4895278;28;20073;-78
2023/12/29 01:51:33;;;;;;;4.60;3.67;;;;;;;11.90;65.92;97081.69;4896310;28;20718;-79
2023/12/29 01:53:59;;;;;;;4.50;3.60;;;;;;;11.86;65.44;97095.50;4913963;28;20635;-79
2023/12/29 01:56:24;;;;;;;6.05;3.70;;;;;;;11.64;66.11;97095.66;4909451;28;20192;-80
2023/12/29 01:58:51;;;;;;;4.18;3.30;;;;;;;11.56;65.97;97092.47;4950771;28;20660;-79
2023/12/29 02:01:18;;;;;;;6.10;3.40;;;;;;;11.90;65.09;97096.56;4913197;28;20243;-80
2023/12/29 02:03:44;;;;;;;4.72;2.90;;;;;;;11.84;64.46;97084.53;4929102;28;20145;-80
2023/12/29 02:06:10;;;;;;;4.15;3.05;;;;;;;11.75;66.22;97095.44;4912144;28;20270;-78
2023/12/29 02:08:37;;;;;;;6.90;3.58;;;;;;;11.52;66.51;97083.59;4929522;28;20188;-82
2023/12/29 02:11:04;;;;;;;5.25;3.50;;;;;;;11.50;66.16;97097.91;4944991;28;20307;-81
2023/12/29 02:13:29;;;;;;;4.50;3.25;;;;;;;11.81;66.18;97104.09;4915049;28;20240;-79
2023/12/29 02:15:58;;;;;;;5.15;3.25;;;;;;;11.72;66.21;97082.13;4911867;28;20346;-79
2023/12/29 02:18:26;;;;;;;4.80;2.70;;;;;;;11.88;64.91;97073.34;4896684;28;20461;-79
2023/12/29 02:20:51;;;;;;;4.13;3.20;;;;;;;11.85;65.44;97080.91;4896606;28;20607;-79
2023/12/29 02:23:19;;;;;;;3.10;2.80;;;;;;;11.85;64.66;97080.91;4896564;28;20297;-78
2023/12/29 02:25:45;;;;;;;4.32;2.90;;;;;;;11.64;65.55;97069.59;4927733;28;20165;-80
2023/12/29 02:28:13;;;;;;;4.10;3.40;;;;;;;11.83;66.21;97082.97;4912581;28;20232;-79
2023/12/29 02:30:44;;;;;;;3.67;3.00;;;;;;;11.76;65.70;97078.00;4931769;28;20636;-79
2023/12/29 02:33:13;;;;;;;4.78;3.35;;;;;;;11.84;65.94;97072.28;4896239;28;20275;-80
2023/12/29 02:35:41;;;;;;;4.45;3.15;;;;;;;11.88;65.76;97075.94;4911462;28;20193;-79
2023/12/29 02:38:06;;;;;;;4.85;3.70;;;;;;;11.61;65.33;97074.25;4928031;28;20034;-80
2023/12/29 02:40:32;;;;;;;4.07;3.70;;;;;;;11.81;65.61;97078.78;4938811;28;20171;-79
2023/12/29 02:42:57;;;;;;;6.53;3.20;;;;;;;11.90;64.51;97071.25;4915967;28;20205;-79
2023/12/29 02:45:23;;;;;;;3.78;3.17;;;;;;;11.78;65.49;97076.69;4929544;28;20284;-78
2023/12/29 02:47:49;;;;;;;4.57;3.45;;;;;;;11.67;66.20;97080.31;4932669;28;20188;-79
2023/12/29 02:50:14;;;;;;;5.15;3.78;;;;;;;11.84;65.60;97066.28;4894653;28;20717;-79
2023/12/29 02:52:39;;;;;;;5.22;3.78;;;;;;;11.78;66.19;97063.66;4938584;28;20364;-78
2023/12/29 02:55:05;;;;;;;4.55;3.70;;;;;;;11.82;65.29;97063.91;4922276;28;20271;-78
2023/12/29 02:57:30;;;;;;;4.75;3.92;;;;;;;11.69;65.94;97061.78;4927583;28;20682;-79
2023/12/29 02:59:56;;;;;;;5.10;3.60;;;;;;;11.72;66.58;97056.84;4927843;28;20709;-79
2023/12/29 03:02:23;;;;;;;4.97;3.92;;;;;;;11.51;66.70;97065.59;4934007;28;20252;-80
2023/12/29 03:04:48;;;;;;;5.53;3.63;;;;;;;11.69;65.28;97046.91;4927186;28;20247;-78
2023/12/29 03:07:14;;;;;;;5.82;4.15;;;;;;;11.35;66.49;97055.09;4892834;28;20308;-79
2023/12/29 03:09:39;;;;;;;5.03;4.05;;;;;;;11.65;66.39;97053.66;4946188;28;20244;-78
2023/12/29 03:12:05;;;;;;;6.57;4.07;;;;;;;11.71;66.30;97055.28;4922182;28;20332;-79
2023/12/29 03:14:30;;;;;;;6.28;4.38;;;;;;;11.64;66.61;97065.16;4922873;28;20092;-78
2023/12/29 03:16:57;;;;;;;5.28;3.90;;;;;;;11.64;66.56;97059.16;4921316;28;20291;-78
2023/12/29 03:19:22;;;;;;;5.30;4.20;;;;;;;11.66;65.96;97068.28;4921570;28;20341;-79
2023/12/29 03:21:48;;;;;;;5.00;4.28;;;;;;;11.59;66.44;97063.28;4928471;28;20246;-80
2023/12/29 03:24:13;;;;;;;4.43;3.70;;;;;;;11.61;66.16;97050.00;4925203;28;20279;-80
2023/12/29 03:26:38;;;;;;;5.90;4.10;;;;;;;11.70;66.15;97063.34;4941278;28;20204;-79
2023/12/29 03:29:04;;;;;;;5.53;4.15;;;;;;;11.65;65.11;97060.72;4910743;28;20283;-79
2023/12/29 03:31:30;;;;;;;6.13;3.90;;;;;;;11.60;65.36;97061.47;4908276;28;20341;-79
2023/12/29 03:33:55;;;;;;;5.53;4.07;;;;;;;11.70;65.89;97060.75;4941003;28;20119;-79
2023/12/29 03:36:20;;;;;;;5.75;3.60;;;;;;;11.62;65.59;97056.81;4939016;28;20110;-78
2023/12/29 03:38:46;;;;;;;5.32;3.92;;;;;;;11.53;65.81;97053.09;4910168;28;20214;-78
2023/12/29 03:41:11;;;;;;;5.78;3.95;;;;;;;11.74;65.16;97064.44;4910414;28;20201;-80
2023/12/29 03:43:37;;;;;;;4.85;3.60;;;;;;;11.90;64.17;97066.03;4911262;28;20299;-79
2023/12/29 03:46:02;;;;;;;6.45;3.85;;;;;;;11.67;65.60;97064.66;4925832;28;20200;-78
2023/12/29 03:48:27;;;;;;;4.40;4.00;;;;;;;11.71;65.48;97060.50;4908186;28;20186;-79
2023/12/29 03:50:53;;;;;;;5.80;3.88;;;;;;;11.53;65.86;97058.31;4908562;28;20245;-78
2023/12/29 03:53:19;;;;;;;4.32;3.78;;;;;;;11.53;65.63;97060.91;4911022;28;20651;-80
2023/12/29 03:55:44;;;;;;;5.32;3.78;;;;;;;11.65;65.97;97053.66;4927222;28;20286;-78
2023/12/29 03:58:10;;;;;;;5.28;3.60;;;;;;;11.70;65.01;97064.13;4923147;28;20133;-79
2023/12/29 04:00:36;;;;;;;6.43;3.80;;;;;;;11.64;65.84;97041.69;4911060;28;20320;-78
2023/12/29 04:03:01;;;;;;;4.18;3.05;;;;;;;11.70;64.89;97048.47;4926376;28;20245;-81
2023/12/29 04:05:27;;;;;;;3.72;3.25;;;;;;;11.75;64.87;97034.69;4910990;28;20527;-80
2023/12/29 04:07:52;;;;;;;5.07;3.63;;;;;;;11.81;64.45;97039.66;4907226;28;20603;-79
2023/12/29 04:10:17;;;;;;;5.07;3.42;;;;;;;11.82;64.82;97035.22;4942330;28;20286;-79
2023/12/29 04:12:43;;;;;;;5.20;3.70;;;;;;;11.67;65.50;97035.97;4903287;28;20179;-79
2023/12/29 04:15:09;;;;;;;5.05;3.42;;;;;;;11.65;65.59;97027.59;4889117;28;20186;-79
2023/12/29 04:17:34;;;;;;;5.18;3.13;;;;;;;11.59;65.83;97032.00;4906812;28;20128;-80
2023/12/29 04:19:59;;;;;;;4.53;3.22;;;;;;;11.50;65.76;97032.72;4894360;28;20277;-80
2023/12/29 04:22:25;;;;;;;5.13;3.53;;;;;;;11.41;66.75;97035.84;4927446;28;20245;-79
2023/12/29 04:24:50;;;;;;;3.88;3.08;;;;;;;11.62;66.30;97038.53;4941698;28;20322;-79
2023/12/29 04:27:16;;;;;;;3.88;3.22;;;;;;;11.71;65.48;97033.63;4924512;28;20160;-79
2023/12/29 04:29:44;;;;;;;5.85;3.40;;;;;;;11.41;66.14;97033.22;4922291;28;20963;-80
2023/12/29 04:32:09;;;;;;;6.43;3.53;;;;;;;11.41;67.07;97033.22;4903691;28;20203;-78
2023/12/29 04:34:34;;;;;;;4.13;3.22;;;;;;;11.36;66.91;97043.63;4946059;28;20216;-79
2023/12/29 04:37:00;;;;;;;3.83;3.40;;;;;;;11.62;65.98;97036.72;4927894;28;20235;-79
2023/12/29 04:39:25;;;;;;;5.60;3.42;;;;;;;11.75;65.39;97030.25;4941412;28;20189;-79
2023/12/29 04:41:50;;;;;;;5.93;3.53;;;;;;;11.71;65.85;97037.00;4898801;28;20126;-79
2023/12/29 04:44:16;;;;;;;4.13;3.70;;;;;;;11.63;66.49;97037.50;4944685;28;20247;-78
2023/12/29 04:46:42;;;;;;;5.80;3.50;;;;;;;11.52;66.63;97039.28;4897598;28;20026;-79
2023/12/29 04:49:07;;;;;;;5.63;3.78;;;;;;;11.58;66.02;97034.88;4961002;28;20284;-80
2023/12/29 04:51:33;;;;;;;4.07;3.72;;;;;;;11.83;65.71;97041.25;4943816;28;20311;-79
2023/12/29 04:53:58;;;;;;;3.58;3.13;;;;;;;11.90;65.01;97037.34;4914430;28;20265;-79
2023/12/29 04:56:24;;;;;;;4.70;3.78;;;;;;;11.85;65.84;97039.94;4928613;28;20611;-80
2023/12/29 04:58:51;;;;;;;3.55;3.10;;;;;;;11.86;65.58;97038.09;4958654;28;20654;-78
2023/12/29 05:01:16;;;;;;;3.45;2.75;;;;;;;11.78;66.21;97048.00;4959654;28;20042;-78
2023/12/29 05:03:42;;;;;;;3.42;3.10;;;;;;;11.76;65.86;97052.69;4912258;28;20065;-78
2023/12/29 05:06:07;;;;;;;3.75;3.35;;;;;;;11.67;66.13;97038.56;4938218;28;20204;-78
2023/12/29 05:08:33;;;;;;;4.35;3.53;;;;;;;11.72;66.50;97035.19;4907341;28;20241;-78
2023/12/29 05:10:58;;;;;;;5.10;2.97;;;;;;;11.66;66.68;97037.00;4924737;28;20092;-78
2023/12/29 05:13:24;;;;;;;5.28;2.92;;;;;;;11.43;66.66;97028.53;4926037;28;20194;-79
2023/12/29 05:15:49;;;;;;;3.80;3.42;;;;;;;11.53;66.29;97027.00;4910558;28;20576;-79
2023/12/29 05:18:14;;;;;;;3.17;2.55;;;;;;;11.67;65.50;97027.34;4893682;28;20216;-79
2023/12/29 05:20:40;;;;;;;3.88;3.15;;;;;;;11.58;66.10;97024.44;4959007;28;20038;-80
2023/12/29 05:23:05;;;;;;;3.50;2.70;;;;;;;11.67;65.65;97019.50;4895030;28;20202;-78
2023/12/29 05:25:31;;;;;;;5.43;3.22;;;;;;;11.68;65.99;97024.47;4924132;28;20205;-78
2023/12/29 05:27:56;;;;;;;4.93;3.47;;;;;;;11.58;66.64;97030.44;4892479;28;20193;-78
2023/12/29 05:30:21;;;;;;;3.10;2.80;;;;;;;11.86;66.18;97025.88;4946133;28;20259;-78
2023/12/29 05:32:47;;;;;;;3.92;2.65;;;;;;;11.60;66.92;97025.75;4913300;28;20267;-78
2023/12/29 05:35:13;;;;;;;2.80;2.42;;;;;;;11.70;66.12;97017.19;4923147;28;20030;-79
2023/12/29 05:37:39;;;;;;;4.70;2.70;;;;;;;11.73;66.46;97034.16;4928249;28;20170;-78
2023/12/29 05:40:05;;;;;;;3.83;2.83;;;;;;;11.82;65.59;97030.00;4894550;28;20052;-78
2023/12/29 05:42:30;;;;;;;3.30;3.00;;;;;;;11.62;67.45;97025.50;4943852;28;20253;-78
2023/12/29 05:44:55;;;;;;;3.80;2.67;;;;;;;11.60;66.38;97033.59;4912687;28;20306;-78
2023/12/29 05:47:21;;;;;;;3.13;2.70;;;;;;;11.52;66.76;97043.72;4896085;28;20282;-78
2023/12/29 05:49:46;;;;;;;4.07;2.72;;;;;;;11.75;65.76;97043.28;4960230;28;20174;-78
2023/12/29 05:52:12;;;;;;;2.63;2.40;;;;;;;11.80;65.31;97040.69;4958908;28;20192;-78
2023/12/29 05:54:37;;;;;;;3.72;2.55;;;;;;;11.65;65.53;97040.63;4921974;28;20244;-78
2023/12/29 05:57:03;;;;;;;2.38;2.03;;;;;;;11.75;65.15;97040.66;4894170;28;20149;-78
2023/12/29 05:59:28;;;;;;;3.78;2.70;;;;;;;11.89;64.45;97040.19;4927169;28;20134;-78
2023/12/29 06:01:54;;;;;;;3.60;2.55;;;;;;;11.75;65.22;97045.09;4911741;28;20243;-78
2023/12/29 06:04:19;;;;;;;3.42;1.95;;;;;;;11.52;65.00;97030.69;4907136;28;20648;-78
2023/12/29 06:06:45;;;;;;;5.53;2.47;;;;;;;11.65;64.89;97024.97;4894509;28;20275;-78
2023/12/29 06:09:11;;;;;;;2.60;2.25;;;;;;;11.59;65.39;97046.88;4896939;28;20647;-78
2023/12/29 06:11:37;;;;;;;3.10;2.10;;;;;;;11.76;64.93;97046.69;4909458;28;20296;-78
2023/12/29 06:14:03;;;;;;;3.72;2.40;;;;;;;11.69;65.01;97049.53;4943063;28;20201;-79
2023/12/29 06:16:29;;;;;;;3.25;2.50;;;;;;;11.71;65.56;97049.28;4912123;28;20231;-78
2023/12/29 06:18:55;;;;;;;4.30;2.88;;;;;;;11.67;65.05;97048.19;4920745;28;20213;-78
2023/12/29 06:21:20;;;;;;;2.83;2.47;;;;;;;11.72;65.47;97048.22;4912322;28;20197;-78
2023/12/29 06:23:46;;;;;;;3.05;2.20;;;;;;;11.73;65.16;97049.81;4927191;28;20730;-78
2023/12/29 06:26:19;;;;;;;3.88;2.90;;;;;;;11.81;65.24;97052.72;4893692;28;20217;-78
2023/12/29 06:28:48;;;;;;;4.00;2.67;;;;;;;11.66;65.03;97054.47;4910978;28;20789;-78
2023/12/29 06:31:13;;;;;;;3.42;2.50;;;;;;;11.78;64.92;97050.59;4942135;28;20713;-78
2023/12/29 06:33:42;;;;;;;3.63;3.08;;;;;;;11.79;65.28;97057.41;4910905;28;20161;-79
2023/12/29 06:36:08;;;;;;;4.18;2.53;;;;;;;11.66;64.97;97057.84;4941938;28;20030;-78
2023/12/29 06:38:34;;;;;;;3.28;2.72;;;;;;;11.76;64.58;97057.13;4944409;28;20291;-78
2023/12/29 06:41:01;;;;;;;3.63;2.80;;;;;;;11.66;65.12;97038.81;4945414;28;20040;-78
2023/12/29 06:43:27;;;;;;;3.47;2.50;;;;;;;11.84;64.67;97045.41;4926029;28;20208;-79
2023/12/29 06:45:52;;;;;;;3.83;2.75;;;;;;;11.73;64.99;97037.53;4926469;28;20222;-78
2023/12/29 06:48:17;;;;;;;3.17;1.90;;;;;;;11.80;63.75;97032.88;4943689;28;20370;-78
2023/12/29 06:50:43;;;;;;;3.50;2.13;;;;;;;11.68;63.46;97037.50;4889142;28;20227;-78
2023/12/29 06:53:08;;;;;;;2.40;1.90;;;;;;;11.77;62.43;97030.78;4927925;28;20351;-78
2023/12/29 06:55:34;;;;;;;2.50;1.83;;;;;;;11.79;63.49;97025.31;4940953;28;20213;-78
2023/12/29 06:57:59;;;;;;;2.30;1.40;;;;;;;11.44;63.02;97037.91;4947372;28;20022;-79
2023/12/29 07:00:24;;;;;;;3.33;1.63;;;;;;;11.60;63.09;97032.78;4928181;28;20204;-78
2023/12/29 07:02:50;;;;;;;3.25;1.45;;;;;;;11.26;63.01;97040.97;4924618;28;20201;-79
2023/12/29 07:05:15;;;;;;;1.98;1.10;;;;;;;11.44;62.72;97024.88;4910256;28;20195;-81
2023/12/29 07:07:41;;;;;;;2.83;1.27;;;;;;;11.60;62.86;97040.59;4943424;28;20121;-79
2023/12/29 07:10:06;;;;;;;2.45;1.45;;;;;;;11.50;62.40;97032.72;4915803;28;20344;-80
2023/12/29 07:12:32;;;;;;;3.97;1.30;;;;;;;11.79;62.07;97046.97;4922350;28;20046;-79
2023/12/29 07:14:57;;;;;;;2.97;1.45;;;;;;;11.70;62.82;97030.22;4909459;28;20338;-79
2023/12/29 07:17:25;;;;;;;2.40;1.50;;;;;;;11.50;63.37;97032.72;4926157;28;20191;-79
2023/12/29 07:19:50;;;;;;;3.08;1.80;;;;;;;11.69;63.19;97041.69;4911449;28;20191;-80
2023/12/29 07:22:15;;;;;;;2.75;1.95;;;;;;;11.76;62.99;97044.09;4942441;28;20208;-78
2023/12/29 07:24:41;;;;;;;3.08;1.90;;;;;;;11.70;63.14;97038.03;4925749;28;20213;-79
2023/12/29 07:27:07;;;;;;;2.80;2.00;;;;;;;11.68;63.85;97034.13;4942522;28;20743;-79
2023/12/29 07:29:33;;;;;;;3.35;2.15;;;;;;;11.84;63.58;97042.78;4912021;28;20192;-79
2023/12/29 07:31:59;;;;;;;3.75;1.80;;;;;;;11.63;64.65;97037.50;4922665;28;20159;-78
2023/12/29 07:34:25;;;;;;;4.38;2.00;;;;;;;11.66;64.68;97038.81;4892907;28;20205;-79
2023/12/29 07:36:50;;;;;;;3.15;1.70;;;;;;;11.80;64.63;97038.09;4927092;28;20189;-79
2023/12/29 07:39:17;;;;;;;3.10;1.98;;;;;;;11.90;63.42;97026.91;4897128;28;20176;-80
2023/12/29 07:41:42;;;;;;;3.47;2.00;;;;;;;11.71;63.95;97028.41;4927254;28;20212;-79
2023/12/29 07:44:10;;;;;;;3.42;1.73;;;;;;;11.88;63.96;97031.59;4909119;28;20079;-80
2023/12/29 07:46:35;;;;;;;4.57;1.92;;;;;;;11.62;64.72;97036.72;4910549;28;20346;-79
2023/12/29 07:49:01;;;;;;;4.20;1.90;;;;;;;11.50;64.80;97023.09;4909751;28;20243;-79
2023/12/29 07:51:26;;;;;;;2.30;1.60;;;;;;;11.68;64.88;97024.47;4940729;28;20321;-79
2023/12/29 07:53:52;;;;;;;2.03;1.83;;;;;;;11.77;64.56;97033.41;4938337;28;20177;-80
2023/12/29 07:56:17;;;;;;;3.40;2.10;;;;;;;11.77;64.79;97036.00;4909881;28;20208;-78
2023/12/29 07:58:42;;;;;;;4.10;1.98;;;;;;;11.87;64.85;97031.84;4942824;28;20153;-81
2023/12/29 08:01:09;;;;;;;2.97;2.08;;;;;;;11.77;65.13;97046.44;4939589;28;20193;-78
2023/12/29 08:03:34;;;;;;;2.88;1.98;;;;;;;11.87;64.82;97048.28;4923158;28;20263;-79
2023/12/29 08:05:59;;;;;;;7.28;2.30;;;;;;;11.60;66.21;97043.22;4940111;28;20289;-80
2023/12/29 08:08:24;;;;;;;4.28;2.25;;;;;;;11.79;64.97;97039.13;4909386;28;20200;-79
2023/12/29 08:10:50;;;;;;;2.50;2.15;;;;;;;11.72;65.50;97049.03;4911892;28;20068;-79
2023/12/29 08:13:17;;;;;;;3.88;2.85;;;;;;;11.80;65.99;97045.91;4894602;28;20273;-80
2023/12/29 08:15:43;;;;;;;3.17;2.40;;;;;;;11.76;66.24;97051.91;4927122;28;20425;-80
2023/12/29 08:18:09;;;;;;;3.15;1.98;;;;;;;12.00;65.65;97049.69;4918209;28;20318;-80
2023/12/29 08:20:34;;;;;;;2.30;1.95;;;;;;;11.93;64.64;97051.75;4926146;28;20216;-79
2023/12/29 08:23:02;;;;;;;2.05;1.77;;;;;;;11.92;65.18;97056.16;4909742;28;20149;-80
2023/12/29 08:25:28;;;;;;;3.05;2.10;;;;;;;12.13;65.01;97059.63;4917544;28;20219;-79
2023/12/29 08:27:54;;;;;;;2.33;2.05;;;;;;;12.17;63.98;97055.47;4909718;28;20712;-79
2023/12/29 08:30:19;;;;;;;2.85;2.17;;;;;;;12.08;65.10;97064.03;4959715;28;20283;-80
2023/12/29 08:32:44;;;;;;;2.70;2.10;;;;;;;11.71;66.17;97052.66;4930792;28;20030;-80
2023/12/29 08:35:10;;;;;;;3.17;1.90;;;;;;;11.89;66.18;97050.63;4930596;28;20032;-79
2023/12/29 08:37:35;;;;;;;2.97;1.80;;;;;;;11.86;65.93;97051.94;4908557;28;20041;-79
2023/12/29 08:40:01;;;;;;;2.05;1.85;;;;;;;11.95;65.41;97052.28;4912230;28;20022;-80
2023/12/29 08:42:27;;;;;;;2.55;2.25;;;;;;;11.91;65.88;97052.00;4942007;28;20025;-80
2023/12/29 08:44:53;;;;;;;3.05;2.75;;;;;;;11.56;66.95;97055.19;4915838;28;20057;-79
2023/12/29 08:47:18;;;;;;;2.88;2.28;;;;;;;11.88;66.24;97060.31;4914650;28;20938;-81
2023/12/29 08:49:43;;;;;;;4.88;2.05;;;;;;;11.73;66.38;97053.19;4944161;28;20156;-81
2023/12/29 08:52:09;;;;;;;2.80;2.58;;;;;;;11.84;66.96;97054.03;4940692;28;20858;-78
2023/12/29 08:54:36;;;;;;;3.53;2.28;;;;;;;11.94;66.71;97056.72;4911130;28;20204;-81
2023/12/29 08:57:03;;;;;;;2.35;2.15;;;;;;;11.98;66.11;97044.72;4942542;28;20239;-80
2023/12/29 08:59:28;;;;;;;2.85;2.03;;;;;;;12.14;65.05;97058.59;4912305;28;20790;-81
2023/12/29 09:01:53;;;;;;;3.15;2.10;;;;;;;12.15;65.10;97054.16;4938195;28;20271;-79
2023/12/29 09:04:19;;;;;;;2.55;1.80;;;;;;;12.05;65.44;97054.13;4928388;28;20165;-78
2023/12/29 09:06:44;;;;;;;4.68;2.40;;;;;;;11.99;65.49;97055.91;4939951;28;20216;-79
2023/12/29 09:09:12;;;;;;;3.88;2.15;;;;;;;11.96;65.69;97049.41;4952682;28;20731;-80
2023/12/29 09:11:39;;;;;;;3.28;1.88;;;;;;;11.77;65.94;97056.88;4933528;28;20243;-81
2023/12/29 09:14:04;;;;;;;1.98;1.55;;;;;;;12.14;65.10;97049.97;4927040;28;20038;-79
2023/12/29 09:16:30;;;;;;;2.47;1.63;;;;;;;11.89;65.96;97037.59;4912420;28;20215;-80
2023/12/29 09:18:55;;;;;;;3.08;1.55;;;;;;;12.28;64.45;97058.88;4941736;28;20639;-79
2023/12/29 09:21:20;;;;;;;2.45;1.77;;;;;;;12.25;64.29;97050.78;4926588;28;20185;-78
2023/12/29 09:23:47;;;;;;;3.03;1.65;;;;;;;11.87;65.52;97052.72;4892295;28;20183;-80
2023/12/29 09:26:12;;;;;;;2.90;1.40;;;;;;;12.05;65.13;97059.34;4927460;28;20261;-79
2023/12/29 09:28:42;;;;;;;2.17;1.30;;;;;;;12.31;64.40;97053.16;4925588;28;20308;-79
2023/12/29 09:31:07;;;;;;;1.98;1.60;;;;;;;12.40;62.97;97056.03;4939132;28;20283;-79
2023/12/29 09:33:32;;;;;;;2.30;1.30;;;;;;;12.22;64.15;97065.16;4926896;28;20655;-77
2023/12/29 09:35:58;;;;;;;2.03;1.33;;;;;;;12.25;63.29;97059.41;4938453;28;20162;-80
2023/12/29 09:38:23;;;;;;;2.35;1.30;;;;;;;12.02;64.24;97063.25;4896614;28;20243;-77
2023/12/29 09:40:49;;;;;;;2.22;1.60;;;;;;;11.95;64.79;97062.69;4915508;28;20170;-79
2023/12/29 09:43:14;;;;;;;2.95;1.35;;;;;;;11.89;65.12;97054.06;4913609;28;20212;-81
2023/12/29 09:45:42;;;;;;;1.90;1.50;;;;;;;12.08;63.94;97059.63;4932740;28;20590;-79
2023/12/29 09:48:09;;;;;;;2.72;1.60;;;;;;;11.98;64.42;97062.97;4913645;28;20266;-79
2023/12/29 09:50:35;;;;;;;3.75;1.70;;;;;;;12.01;64.01;97064.28;4943197;28;20193;-79
2023/12/29 09:53:02;;;;;;;1.98;1.27;;;;;;;11.99;64.58;97061.94;4924546;28;20243;-80
2023/12/29 09:55:28;;;;;;;2.65;1.80;;;;;;;11.96;63.39;97059.03;4940710;28;20640;-77
2023/12/29 09:57:54;;;;;;;2.22;1.65;;;;;;;12.03;64.03;97062.22;4927533;28;20185;-78
2023/12/29 10:00:20;;;;;;;1.75;1.40;;;;;;;12.11;63.21;97077.34;4928443;28;20596;-78
2023/12/29 10:02:46;;;;;;;2.78;1.60;;;;;;;11.93;64.01;97068.19;4925414;28;20306;-77
2023/12/29 10:05:11;;;;;;;1.88;1.40;;;;;;;12.15;63.46;97075.81;4928884;28;20634;-81
2023/12/29 10:07:38;;;;;;;3.13;1.30;;;;;;;12.19;62.97;97078.69;4928870;28;20200;-79
2023/12/29 10:10:04;;;;;;;1.90;0.98;;;;;;;12.16;63.85;97072.16;4912259;28;20266;-80
2023/12/29 10:12:30;;;;;;;4.18;1.48;;;;;;;11.89;64.68;97076.72;4918301;28;20217;-78
2023/12/29 10:15:14;;;;;;;1.98;1.42;;;;;;;12.05;64.27;97073.19;4925860;28;20367;-79
2023/12/29 10:17:51;;;;;;;1.48;1.27;;;;;;;12.10;64.23;97075.03;4945190;28;20166;-79
2023/12/29 10:21:03;;;;;;;2.10;1.27;;;;;;;12.35;62.88;97077.72;4927426;28;20224;-78
2023/12/29 10:23:36;;;;;;;1.63;1.40;;;;;;;12.49;62.50;97075.38;4917661;28;20750;-78
2023/12/29 10:26:01;;;;;;;3.40;1.67;;;;;;;11.96;64.38;97059.03;4944447;28;20216;-78
2023/12/29 10:28:27;;;;;;;1.52;1.17;;;;;;;12.20;63.55;97063.81;4934683;28;20271;-80
2023/12/29 10:30:52;;;;;;;3.05;1.23;;;;;;;12.23;63.44;97063.31;4902843;28;20242;-81
2023/12/29 10:33:21;;;;;;;2.05;1.17;;;;;;;11.90;64.36;97058.22;4895878;28;20284;-80
2023/12/29 10:36:05;;;;;;;3.92;1.30;;;;;;;12.24;63.25;97055.22;4912119;28;20121;-80
2023/12/29 10:38:30;;;;;;;3.05;1.35;;;;;;;12.29;62.95;97064.91;4926287;28;20556;-79
2023/12/29 10:41:17;;;;;;;1.95;1.17;;;;;;;12.35;63.08;97066.47;4928716;28;20304;-79
2023/12/29 10:43:43;;;;;;;2.28;1.30;;;;;;;12.12;64.32;97060.66;4911855;28;20563;-79
2023/12/29 10:46:10;;;;;;;3.28;1.42;;;;;;;12.51;61.88;97057.63;4926386;28;20209;-80
2023/12/29 10:48:36;;;;;;;4.10;1.40;;;;;;;12.61;62.13;97050.84;4963282;28;20655;-79
2023/12/29 10:51:05;;;;;;;1.85;1.67;;;;;;;12.30;63.68;97040.34;4911891;28;20631;-80
2023/12/29 10:53:32;;;;;;;1.70;1.40;;;;;;;12.46;62.62;97044.56;4925592;28;20835;-79
2023/12/29 10:55:58;;;;;;;2.28;1.50;;;;;;;12.39;63.01;97038.00;4925360;28;20022;-79
2023/12/29 10:58:27;;;;;;;2.55;1.38;;;;;;;12.43;63.18;97032.03;4918321;28;20140;-79
2023/12/29 11:00:54;;;;;;;1.60;1.30;;;;;;;12.50;62.12;97016.09;4934147;23;20570;-80
2023/12/29 11:03:19;;;;;;;2.38;0.90;;;;;;;12.43;61.02;97033.84;4896580;28;20034;-81
2023/12/29 11:05:45;;;;;;;2.28;1.17;;;;;;;12.53;61.53;97018.19;4919508;28;20026;-79
2023/12/29 11:08:20;;;;;;;2.65;1.55;;;;;;;12.65;61.04;97023.16;4945606;28;20041;-80
2023/12/29 11:10:48;;;;;;;1.83;0.90;;;;;;;12.51;61.35;97034.13;4929108;28;20262;-80
2023/12/29 11:13:14;;;;;;;1.85;1.10;;;;;;;12.58;59.99;97028.66;4928128;28;20026;-79
2023/12/29 11:15:44;;;;;;;1.58;0.90;;;;;;;12.81;60.44;97023.94;4930587;28;20614;-79
2023/12/29 11:18:15;;;;;;;1.92;1.13;;;;;;;12.86;60.08;97022.09;4928956;28;20208;-79
2023/12/29 11:20:41;;;;;;;1.65;1.15;;;;;;;12.67;60.47;97028.91;4927647;28;20275;-80
2023/12/29 11:23:07;;;;;;;1.98;1.00;;;;;;;12.92;59.75;97036.75;4922408;28;20195;-81
2023/12/29 11:25:33;;;;;;;1.05;0.80;;;;;;;12.95;59.70;97029.41;4918150;28;20655;-78
2023/12/29 11:28:00;;;;;;;2.35;1.45;;;;;;;12.49;60.59;97015.31;4937216;28;20270;-80
2023/12/29 11:30:26;;;;;;;2.70;1.20;;;;;;;12.41;61.90;97026.28;4916155;28;20793;-79